createdAt,value
2023-05-13T00:00:18.197Z,11.60
2023-05-13T00:02:45.647Z,10.45
2023-05-13T00:05:12.938Z,11.23
2023-05-13T00:07:41.679Z,9.35
2023-05-13T00:10:09.609Z,10.50
2023-05-13T00:12:37.211Z,10.82
2023-05-13T00:15:05.071Z,10.93
2023-05-13T00:17:32.308Z,10.27
2023-05-13T00:19:59.651Z,10.98
2023-05-13T00:22:26.841Z,10.25
2023-05-13T00:24:54.129Z,10.82
2023-05-13T00:27:21.388Z,12.15
2023-05-13T00:29:48.720Z,11.05
2023-05-13T00:32:16.062Z,10.65
2023-05-13T00:34:43.458Z,10.77
2023-05-13T00:37:12.021Z,9.55
2023-05-13T00:39:39.407Z,9.30
2023-05-13T00:42:06.731Z,9.30
2023-05-13T00:44:34.673Z,9.60
2023-05-13T00:47:02.393Z,10.25
2023-05-13T00:49:29.693Z,11.18
2023-05-13T00:51:57.027Z,10.75
2023-05-13T00:54:24.329Z,10.25
2023-05-13T00:56:56.626Z,10.70
2023-05-13T00:59:26.908Z,10.23
2023-05-13T01:02:11.998Z,11.43
2023-05-13T01:05:04.265Z,10.88
2023-05-13T01:07:56.676Z,11.70
2023-05-13T01:10:49.574Z,10.05
2023-05-13T01:13:31.251Z,10.90
2023-05-13T01:16:12.557Z,11.43
2023-05-13T01:18:45.067Z,10.63
2023-05-13T01:21:12.814Z,10.25
2023-05-13T01:23:40.172Z,12.15
2023-05-13T01:26:07.509Z,10.90
2023-05-13T01:28:35.094Z,11.45
2023-05-13T01:31:04.108Z,10.80
2023-05-13T01:33:32.281Z,12.07
2023-05-13T01:35:59.804Z,11.52
2023-05-13T01:38:28.578Z,11.18
2023-05-13T01:40:58.918Z,11.07
2023-05-13T01:43:26.825Z,11.27
2023-05-13T01:45:54.520Z,10.07
2023-05-13T01:48:24.070Z,11.43
2023-05-13T01:50:52.589Z,10.27
2023-05-13T01:53:20.071Z,11.65
2023-05-13T01:55:48.320Z,11.75
2023-05-13T01:58:15.605Z,11.90
2023-05-13T02:00:42.930Z,11.30
2023-05-13T02:03:10.612Z,12.88
2023-05-13T02:05:37.868Z,11.38
2023-05-13T02:08:07.923Z,12.07
2023-05-13T02:10:35.181Z,12.30
2023-05-13T02:13:02.479Z,11.05
2023-05-13T02:15:29.770Z,11.15
2023-05-13T02:17:57.246Z,12.43
2023-05-13T02:20:24.965Z,12.00
2023-05-13T02:22:52.259Z,12.52
2023-05-13T02:25:19.690Z,11.82
2023-05-13T02:27:47.030Z,12.43
2023-05-13T02:30:14.411Z,11.80
2023-05-13T02:32:43.904Z,13.18
2023-05-13T02:35:11.388Z,12.82
2023-05-13T02:37:39.046Z,13.02
2023-05-13T02:40:06.936Z,12.82
2023-05-13T02:42:34.140Z,12.73
2023-05-13T02:45:01.777Z,13.25
2023-05-13T02:47:32.238Z,13.15
2023-05-13T02:50:06.080Z,13.48
2023-05-13T02:52:35.808Z,13.15
2023-05-13T02:55:03.633Z,14.05
2023-05-13T02:57:31.148Z,14.32
2023-05-13T02:59:59.020Z,14.07
2023-05-13T03:02:27.974Z,12.60
2023-05-13T03:04:56.470Z,14.18
2023-05-13T03:07:24.589Z,13.38
2023-05-13T03:09:51.928Z,13.10
2023-05-13T03:12:19.215Z,14.35
2023-05-13T03:14:46.550Z,13.63
2023-05-13T03:17:13.746Z,13.85
2023-05-13T03:19:41.226Z,15.77
2023-05-13T03:22:08.805Z,13.18
2023-05-13T03:24:36.033Z,14.70
2023-05-13T03:27:04.276Z,14.43
2023-05-13T03:29:32.995Z,14.88
2023-05-13T03:32:00.410Z,13.88
2023-05-13T03:34:27.994Z,14.40
2023-05-13T03:36:55.453Z,13.68
2023-05-13T03:39:23.065Z,14.98
2023-05-13T03:41:50.450Z,14.13
2023-05-13T03:44:17.921Z,14.63
2023-05-13T03:46:45.337Z,13.77
2023-05-13T03:49:12.837Z,13.80
2023-05-13T03:51:40.112Z,14.85
2023-05-13T03:54:08.030Z,13.77
2023-05-13T03:56:35.346Z,14.18
2023-05-13T03:59:02.639Z,15.98
2023-05-13T04:01:30.032Z,14.98
2023-05-13T04:03:57.406Z,13.70
2023-05-13T04:06:24.808Z,14.65
2023-05-13T04:08:52.076Z,15.73
2023-05-13T04:11:19.295Z,14.65
2023-05-13T04:13:48.018Z,15.75
2023-05-13T04:16:17.338Z,16.20
2023-05-13T04:18:44.629Z,13.93
2023-05-13T04:21:11.838Z,15.00
2023-05-13T04:23:39.067Z,16.48
2023-05-13T04:26:06.390Z,14.50
2023-05-13T04:28:34.732Z,15.18
2023-05-13T04:31:02.974Z,15.85
2023-05-13T04:33:31.198Z,15.75
2023-05-13T04:35:58.465Z,15.60
2023-05-13T04:38:25.715Z,15.38
2023-05-13T04:40:53.307Z,17.60
2023-05-13T04:43:32.063Z,15.65
2023-05-13T04:46:01.122Z,14.35
2023-05-13T04:48:28.691Z,14.52
2023-05-13T04:50:58.442Z,15.45
2023-05-13T04:53:26.337Z,15.30
2023-05-13T04:56:00.699Z,13.60
2023-05-13T04:58:29.257Z,14.18
2023-05-13T05:00:57.468Z,18.92
2023-05-13T05:03:25.076Z,15.45
2023-05-13T05:05:52.658Z,14.75
2023-05-13T05:08:20.665Z,12.90
2023-05-13T05:10:49.777Z,14.25
2023-05-13T05:13:17.313Z,13.70
2023-05-13T05:15:44.923Z,13.10
2023-05-13T05:18:14.158Z,13.48
2023-05-13T05:20:43.504Z,13.88
2023-05-13T05:23:16.590Z,13.27
2023-05-13T05:25:44.590Z,12.52
2023-05-13T05:28:12.219Z,13.10
2023-05-13T05:30:42.231Z,13.20
2023-05-13T05:33:21.202Z,12.40
2023-05-13T05:35:49.424Z,12.20
2023-05-13T05:38:18.235Z,13.60
2023-05-13T05:40:46.856Z,13.85
2023-05-13T05:43:14.912Z,13.05
2023-05-13T05:45:42.363Z,13.43
2023-05-13T05:48:13.280Z,12.73
2023-05-13T05:50:41.523Z,13.32
2023-05-13T05:53:11.035Z,13.05
2023-05-13T05:55:39.782Z,12.98
2023-05-13T05:58:10.151Z,13.68
2023-05-13T06:00:38.620Z,13.30
2023-05-13T06:03:06.213Z,11.88
2023-05-13T06:05:33.771Z,12.02
2023-05-13T06:08:01.059Z,11.38
2023-05-13T06:10:30.316Z,14.10
2023-05-13T06:12:58.511Z,12.75
2023-05-13T06:15:25.816Z,12.88
2023-05-13T06:17:53.178Z,12.30
2023-05-13T06:20:20.635Z,10.70
2023-05-13T06:22:48.246Z,12.35
2023-05-13T06:25:15.787Z,13.77
2023-05-13T06:27:43.094Z,12.32
2023-05-13T06:30:10.884Z,11.43
2023-05-13T06:32:53.485Z,11.90
2023-05-13T06:35:25.801Z,11.40
2023-05-13T06:37:54.163Z,12.60
2023-05-13T06:40:21.752Z,12.48
2023-05-13T06:42:49.843Z,10.85
2023-05-13T06:45:23.428Z,11.23
2023-05-13T06:47:51.745Z,11.40
2023-05-13T06:50:19.758Z,9.85
2023-05-13T06:52:47.826Z,9.85
2023-05-13T06:55:16.636Z,9.10
2023-05-13T06:57:46.714Z,7.85
2023-05-13T07:00:15.615Z,7.88
2023-05-13T07:02:43.131Z,7.60
2023-05-13T07:05:12.253Z,7.00
2023-05-13T07:07:39.518Z,6.43
2023-05-13T07:10:06.993Z,7.30
2023-05-13T07:12:34.326Z,6.28
2023-05-13T07:15:01.731Z,7.15
2023-05-13T07:17:29.125Z,6.15
2023-05-13T07:19:56.849Z,7.53
2023-05-13T07:22:24.479Z,7.35
2023-05-13T07:24:51.743Z,7.60
2023-05-13T07:27:19.110Z,6.72
2023-05-13T07:29:46.481Z,6.68
2023-05-13T07:32:13.794Z,6.18
2023-05-13T07:34:41.497Z,6.10
2023-05-13T07:37:08.796Z,5.93
2023-05-13T07:39:36.209Z,5.70
2023-05-13T07:42:03.928Z,5.78
2023-05-13T07:44:31.223Z,5.50
2023-05-13T07:46:58.535Z,5.45
2023-05-13T07:49:25.977Z,5.63
2023-05-13T07:51:53.251Z,6.05
2023-05-13T07:54:20.797Z,5.72
2023-05-13T07:56:48.084Z,4.97
2023-05-13T07:59:15.405Z,6.00
2023-05-13T08:01:43.261Z,5.47
2023-05-13T08:04:10.871Z,5.68
2023-05-13T08:06:38.294Z,5.50
2023-05-13T08:09:06.455Z,5.97
2023-05-13T08:11:33.710Z,5.25
2023-05-13T08:14:00.925Z,5.88
2023-05-13T08:16:28.192Z,5.38
2023-05-13T08:18:55.647Z,5.53
2023-05-13T08:21:22.993Z,5.18
2023-05-13T08:23:51.977Z,5.85
2023-05-13T08:26:19.434Z,6.80
2023-05-13T08:28:46.814Z,6.05
2023-05-13T08:31:14.215Z,4.88
2023-05-13T08:33:46.135Z,5.97
2023-05-13T08:36:14.492Z,5.93
2023-05-13T08:38:43.451Z,6.05
2023-05-13T08:41:14.477Z,5.88
2023-05-13T08:43:46.800Z,5.78
2023-05-13T08:46:17.157Z,6.10
2023-05-13T08:48:45.664Z,6.57
2023-05-13T08:51:13.155Z,5.90
2023-05-13T08:53:41.286Z,5.95
2023-05-13T08:56:09.652Z,5.22
2023-05-13T08:58:36.923Z,5.93
2023-05-13T09:01:05.494Z,4.85
2023-05-13T09:03:33.380Z,4.70
2023-05-13T09:06:01.786Z,4.97
2023-05-13T09:08:29.063Z,4.80
2023-05-13T09:10:56.501Z,5.38
2023-05-13T09:13:23.742Z,4.72
2023-05-13T09:15:51.784Z,5.80
2023-05-13T09:18:19.567Z,4.63
2023-05-13T09:20:48.105Z,4.45
2023-05-13T09:23:15.892Z,4.82
2023-05-13T09:25:43.468Z,4.38
2023-05-13T09:28:14.967Z,3.95
2023-05-13T09:30:45.493Z,4.65
2023-05-13T09:33:19.783Z,4.35
2023-05-13T09:35:52.938Z,7.13
2023-05-13T09:38:24.928Z,5.97
2023-05-13T09:40:59.237Z,4.78
2023-05-13T09:43:28.422Z,6.28
2023-05-13T09:46:03.450Z,6.40
2023-05-13T09:48:33.060Z,5.78
2023-05-13T09:51:00.740Z,5.28
2023-05-13T09:53:28.506Z,6.18
2023-05-13T09:55:57.235Z,6.72
2023-05-13T09:58:28.354Z,6.07
2023-05-13T10:00:55.630Z,6.63
2023-05-13T10:03:23.215Z,6.43
2023-05-13T10:05:52.687Z,6.40
2023-05-13T10:08:20.051Z,6.18
2023-05-13T10:10:49.584Z,5.43
2023-05-13T10:13:19.905Z,5.10
2023-05-13T10:15:54.696Z,7.88
2023-05-13T10:18:23.970Z,5.72
2023-05-13T10:20:54.675Z,16.95
2023-05-13T10:23:24.062Z,11.73
2023-05-13T10:25:54.301Z,5.13
2023-05-13T10:28:23.135Z,11.02
2023-05-13T10:30:53.492Z,5.38
2023-05-13T10:33:21.792Z,8.90
2023-05-13T10:36:01.917Z,5.80
2023-05-13T10:39:02.697Z,7.50
2023-05-13T10:42:06.221Z,6.38
2023-05-13T10:44:35.201Z,6.00
2023-05-13T10:47:02.984Z,5.82
2023-05-13T10:49:34.923Z,5.85
2023-05-13T10:52:12.152Z,6.43
2023-05-13T10:54:42.273Z,5.78
2023-05-13T10:57:10.522Z,6.20
2023-05-13T10:59:57.811Z,6.05
2023-05-13T11:02:31.376Z,5.45
2023-05-13T11:05:02.900Z,7.38
2023-05-13T11:07:30.718Z,5.88
2023-05-13T11:09:59.930Z,6.35
2023-05-13T11:12:27.252Z,8.13
2023-05-13T11:14:58.210Z,7.95
2023-05-13T11:17:25.964Z,7.40
2023-05-13T11:19:53.552Z,6.60
2023-05-13T11:22:26.241Z,6.70
2023-05-13T11:25:10.318Z,6.57
2023-05-13T11:27:42.625Z,5.78
2023-05-13T11:30:23.468Z,5.38
2023-05-13T11:32:53.834Z,5.22
2023-05-13T11:35:22.985Z,3.25
2023-05-13T11:37:51.062Z,3.28
2023-05-13T11:40:23.631Z,3.63
2023-05-13T11:42:51.459Z,2.17
2023-05-13T11:45:19.660Z,2.42
2023-05-13T11:47:47.354Z,3.00
2023-05-13T11:50:26.361Z,4.03
2023-05-13T11:53:02.800Z,2.70
2023-05-13T11:55:37.562Z,2.40
2023-05-13T11:58:04.846Z,1.90
2023-05-13T12:00:34.340Z,2.10
2023-05-13T12:03:09.231Z,2.55
2023-05-13T12:05:38.023Z,2.33
2023-05-13T12:08:10.834Z,2.42
2023-05-13T12:10:45.455Z,2.47
2023-05-13T12:13:13.295Z,2.42
2023-05-13T12:15:41.990Z,2.70
2023-05-13T12:18:09.310Z,2.70
2023-05-13T12:20:38.316Z,2.72
2023-05-13T12:23:06.239Z,2.53
2023-05-13T12:25:40.670Z,2.28
2023-05-13T12:28:40.106Z,2.50
2023-05-13T12:31:07.507Z,2.20
2023-05-13T12:33:42.778Z,2.47
2023-05-13T12:36:25.755Z,2.50
2023-05-13T12:39:11.709Z,2.88
2023-05-13T12:41:41.221Z,2.90
2023-05-13T12:44:09.221Z,2.33
2023-05-13T12:46:37.223Z,2.20
2023-05-13T12:49:05.367Z,2.58
2023-05-13T12:51:33.931Z,2.97
2023-05-13T12:54:01.662Z,2.72
2023-05-13T12:56:29.157Z,1.83
2023-05-13T12:58:57.010Z,2.28
2023-05-13T13:01:24.664Z,2.15
2023-05-13T13:03:52.198Z,2.50
2023-05-13T13:06:19.682Z,2.33
2023-05-13T13:08:47.239Z,1.90
2023-05-13T13:11:18.495Z,1.70
2023-05-13T13:13:46.894Z,2.30
2023-05-13T13:16:14.909Z,2.08
2023-05-13T13:18:42.509Z,2.15
2023-05-13T13:21:10.692Z,1.90
2023-05-13T13:23:38.154Z,2.58
2023-05-13T13:26:05.494Z,2.65
2023-05-13T13:28:33.063Z,1.95
2023-05-13T13:31:00.531Z,2.15
2023-05-13T13:33:27.885Z,2.00
2023-05-13T13:35:55.273Z,2.00
2023-05-13T13:38:22.619Z,2.50
2023-05-13T13:40:49.975Z,2.38
2023-05-13T13:43:17.413Z,2.38
2023-05-13T13:45:45.038Z,3.45
2023-05-13T13:48:13.288Z,3.00
2023-05-13T13:50:40.734Z,3.30
2023-05-13T13:53:08.188Z,1.85
2023-05-13T13:55:35.514Z,2.33
2023-05-13T13:58:02.884Z,2.58
2023-05-13T14:00:30.290Z,1.88
2023-05-13T14:02:57.772Z,1.95
2023-05-13T14:05:25.334Z,2.00
2023-05-13T14:07:54.113Z,1.60
2023-05-13T14:10:21.706Z,1.70
2023-05-13T14:12:49.205Z,2.67
2023-05-13T14:15:16.567Z,2.80
2023-05-13T14:17:44.037Z,2.55
2023-05-13T14:20:12.257Z,3.08
2023-05-13T14:22:39.687Z,3.15
2023-05-13T14:25:07.198Z,2.90
2023-05-13T14:27:36.464Z,2.90
2023-05-13T14:30:05.062Z,2.55
2023-05-13T14:32:33.400Z,2.30
2023-05-13T14:35:00.779Z,2.97
2023-05-13T14:37:28.032Z,27.88
2023-05-13T14:39:56.016Z,6.70
2023-05-13T14:42:23.292Z,3.17
2023-05-13T14:44:54.950Z,2.42
2023-05-13T14:47:22.132Z,2.80
2023-05-13T14:49:50.289Z,2.60
2023-05-13T14:52:18.128Z,2.50
2023-05-13T14:54:49.430Z,3.22
2023-05-13T14:57:17.110Z,2.63
2023-05-13T14:59:47.656Z,2.25
2023-05-13T15:02:17.235Z,1.92
2023-05-13T15:04:45.133Z,2.35
2023-05-13T15:07:12.715Z,4.93
2023-05-13T15:09:40.288Z,14.55
2023-05-13T15:12:08.089Z,6.45
2023-05-13T15:14:35.334Z,2.20
2023-05-13T15:17:02.754Z,1.73
2023-05-13T15:19:30.640Z,1.60
2023-05-13T15:21:57.813Z,2.20
2023-05-13T15:24:25.091Z,2.00
2023-05-13T15:26:52.345Z,1.77
2023-05-13T15:29:19.542Z,2.15
2023-05-13T15:31:49.961Z,2.10
2023-05-13T15:34:17.306Z,2.20
2023-05-13T15:36:44.532Z,1.95
2023-05-13T15:39:11.982Z,1.90
2023-05-13T15:41:39.312Z,2.47
2023-05-13T15:44:06.512Z,2.10
2023-05-13T15:46:35.367Z,2.20
2023-05-13T15:49:03.015Z,2.17
2023-05-13T15:51:30.451Z,2.20
2023-05-13T15:53:57.792Z,2.40
2023-05-13T15:56:25.805Z,2.17
2023-05-13T15:58:53.023Z,2.42
2023-05-13T16:01:20.280Z,2.40
2023-05-13T16:03:47.724Z,2.28
2023-05-13T16:06:15.327Z,2.40
2023-05-13T16:08:42.522Z,3.83
2023-05-13T16:11:11.831Z,3.00
2023-05-13T16:13:39.990Z,2.63
2023-05-13T16:16:07.697Z,3.10
2023-05-13T16:18:34.928Z,2.58
2023-05-13T16:21:02.168Z,2.80
2023-05-13T16:23:29.399Z,2.72
2023-05-13T16:25:56.623Z,2.42
2023-05-13T16:28:23.886Z,2.22
2023-05-13T16:30:51.433Z,2.42
2023-05-13T16:33:18.707Z,2.42
2023-05-13T16:35:45.942Z,2.78
2023-05-13T16:38:13.671Z,2.47
2023-05-13T16:40:41.003Z,1.70
2023-05-13T16:43:08.401Z,2.83
2023-05-13T16:45:35.677Z,2.17
2023-05-13T16:48:03.095Z,2.45
2023-05-13T16:50:30.568Z,2.58
2023-05-13T16:52:57.870Z,2.92
2023-05-13T16:55:26.045Z,2.75
2023-05-13T16:57:56.061Z,3.65
2023-05-13T17:00:23.794Z,4.13
2023-05-13T17:02:51.364Z,2.92
2023-05-13T17:05:18.867Z,3.50
2023-05-13T17:07:46.206Z,3.42
2023-05-13T17:10:13.434Z,3.30
2023-05-13T17:12:40.812Z,2.78
2023-05-13T17:15:08.406Z,2.53
2023-05-13T17:17:35.870Z,2.95
2023-05-13T17:20:03.401Z,2.55
2023-05-13T17:22:30.725Z,3.33
2023-05-13T17:24:57.955Z,2.60
2023-05-13T17:27:25.614Z,3.47
2023-05-13T17:29:53.009Z,2.58
2023-05-13T17:32:20.287Z,3.40
2023-05-13T17:34:47.524Z,2.80
2023-05-13T17:37:14.828Z,3.40
2023-05-13T17:39:42.108Z,2.83
2023-05-13T17:42:09.269Z,3.35
2023-05-13T17:44:36.516Z,3.25
2023-05-13T17:47:03.986Z,3.53
2023-05-13T17:49:31.221Z,2.80
2023-05-13T17:51:58.431Z,3.67
2023-05-13T17:54:25.614Z,2.85
2023-05-13T17:56:52.830Z,3.42
2023-05-13T17:59:20.034Z,3.40
2023-05-13T18:01:47.227Z,3.20
2023-05-13T18:04:14.479Z,2.88
2023-05-13T18:06:41.668Z,3.13
2023-05-13T18:09:08.950Z,3.80
2023-05-13T18:11:36.260Z,5.38
2023-05-13T18:14:03.560Z,4.32
2023-05-13T18:16:30.995Z,4.32
2023-05-13T18:18:58.324Z,3.55
2023-05-13T18:21:28.849Z,3.72
2023-05-13T18:23:56.301Z,3.33
2023-05-13T18:26:23.815Z,3.15
2023-05-13T18:28:51.124Z,3.35
2023-05-13T18:31:18.544Z,3.25
2023-05-13T18:33:46.039Z,3.72
2023-05-13T18:36:13.491Z,3.90
2023-05-13T18:38:40.799Z,3.45
2023-05-13T18:41:08.300Z,3.30
2023-05-13T18:43:35.615Z,3.45
2023-05-13T18:46:02.890Z,4.20
2023-05-13T18:48:30.138Z,3.70
2023-05-13T18:50:57.382Z,3.97
2023-05-13T18:53:24.835Z,3.72
2023-05-13T18:55:52.303Z,3.88
2023-05-13T18:58:19.688Z,3.28
2023-05-13T19:00:46.882Z,3.75
2023-05-13T19:03:14.870Z,4.20
2023-05-13T19:05:42.325Z,3.92
2023-05-13T19:08:09.580Z,4.93
2023-05-13T19:10:40.404Z,4.50
2023-05-13T19:13:08.034Z,4.57
2023-05-13T19:15:35.800Z,4.38
2023-05-13T19:18:03.303Z,3.90
2023-05-13T19:20:30.656Z,3.72
2023-05-13T19:22:57.896Z,3.83
2023-05-13T19:25:25.485Z,3.85
2023-05-13T19:27:52.872Z,3.58
2023-05-13T19:30:20.610Z,5.28
2023-05-13T19:32:48.467Z,4.50
2023-05-13T19:35:16.623Z,4.03
2023-05-13T19:37:43.908Z,4.38
2023-05-13T19:40:11.441Z,4.38
2023-05-13T19:42:38.806Z,4.32
2023-05-13T19:45:08.588Z,4.07
2023-05-13T19:47:36.206Z,4.63
2023-05-13T19:50:04.128Z,4.10
2023-05-13T19:52:31.563Z,5.10
2023-05-13T19:54:58.817Z,3.95
2023-05-13T19:57:28.063Z,7.70
2023-05-13T19:59:58.499Z,5.80
2023-05-13T20:02:25.963Z,5.15
2023-05-13T20:04:53.297Z,4.70
2023-05-13T20:07:20.512Z,5.13
2023-05-13T20:09:47.778Z,4.82
2023-05-13T20:12:15.013Z,5.05
2023-05-13T20:14:48.612Z,4.85
2023-05-13T20:17:18.329Z,4.68
2023-05-13T20:19:49.511Z,5.32
2023-05-13T20:22:18.461Z,4.57
2023-05-13T20:24:50.353Z,5.05
2023-05-13T20:27:18.309Z,6.35
2023-05-13T20:29:47.925Z,5.25
2023-05-13T20:32:21.112Z,5.13
2023-05-13T20:34:48.429Z,7.47
2023-05-13T20:37:16.814Z,6.80
2023-05-13T20:39:44.265Z,5.95
2023-05-13T20:42:11.521Z,5.88
2023-05-13T20:44:39.727Z,7.95
2023-05-13T20:47:07.786Z,7.18
2023-05-13T20:49:35.188Z,7.05
2023-05-13T20:52:08.504Z,8.98
2023-05-13T20:54:37.231Z,10.23
2023-05-13T20:57:05.028Z,9.13
2023-05-13T20:59:32.281Z,9.20
2023-05-13T21:01:59.746Z,10.65
2023-05-13T21:04:27.128Z,9.43
2023-05-13T21:06:54.505Z,9.50
2023-05-13T21:09:21.731Z,10.25
2023-05-13T21:11:48.985Z,10.32
2023-05-13T21:14:16.348Z,10.15
2023-05-13T21:16:43.670Z,10.90
2023-05-13T21:19:24.708Z,9.15
2023-05-13T21:21:51.921Z,8.93
2023-05-13T21:24:22.122Z,9.65
2023-05-13T21:26:49.841Z,9.00
2023-05-13T21:29:18.869Z,8.50
2023-05-13T21:31:47.507Z,9.50
2023-05-13T21:34:14.843Z,8.38
2023-05-13T21:36:42.240Z,9.32
2023-05-13T21:39:10.494Z,8.40
2023-05-13T21:41:38.025Z,8.85
2023-05-13T21:44:05.456Z,8.75
2023-05-13T21:46:32.835Z,9.68
2023-05-13T21:49:00.698Z,10.05
2023-05-13T21:51:28.508Z,9.93
2023-05-13T21:53:55.770Z,9.40
2023-05-13T21:56:23.034Z,9.82
2023-05-13T21:58:50.575Z,9.70
2023-05-13T22:01:18.403Z,8.55
2023-05-13T22:03:48.175Z,8.68
2023-05-13T22:06:15.787Z,8.75
2023-05-13T22:08:43.015Z,8.55
2023-05-13T22:11:12.349Z,9.05
2023-05-13T22:13:39.801Z,8.40
2023-05-13T22:16:07.277Z,9.65
2023-05-13T22:18:34.757Z,9.45
2023-05-13T22:21:02.279Z,8.48
2023-05-13T22:23:29.691Z,8.93
2023-05-13T22:25:57.218Z,9.88
2023-05-13T22:28:24.435Z,10.23
2023-05-13T22:30:51.949Z,9.13
2023-05-13T22:33:19.276Z,8.50
2023-05-13T22:35:47.192Z,8.88
2023-05-13T22:38:14.513Z,8.68
2023-05-13T22:40:42.958Z,8.55
2023-05-13T22:43:10.659Z,8.93
2023-05-13T22:45:38.372Z,8.35
2023-05-13T22:48:06.458Z,8.07
2023-05-13T22:50:33.794Z,9.45
2023-05-13T22:53:01.497Z,9.45
2023-05-13T22:55:28.892Z,10.25
2023-05-13T22:57:56.409Z,8.88
2023-05-13T23:00:24.072Z,9.23
2023-05-13T23:02:51.691Z,8.25
2023-05-13T23:05:19.133Z,8.27
2023-05-13T23:07:46.865Z,7.78
2023-05-13T23:10:14.468Z,8.50
2023-05-13T23:12:41.903Z,9.60
2023-05-13T23:15:11.763Z,9.35
2023-05-13T23:17:39.525Z,9.00
2023-05-13T23:20:07.618Z,10.50
2023-05-13T23:22:35.193Z,9.73
2023-05-13T23:25:03.790Z,9.18
2023-05-13T23:27:31.825Z,9.18
2023-05-13T23:29:59.748Z,9.05
2023-05-13T23:32:27.602Z,9.38
2023-05-13T23:34:55.025Z,9.10
2023-05-13T23:37:22.484Z,10.45
2023-05-13T23:39:49.726Z,9.15
2023-05-13T23:42:17.617Z,9.27
2023-05-13T23:44:44.985Z,9.88
2023-05-13T23:47:13.587Z,10.18
2023-05-13T23:49:41.009Z,9.90
2023-05-13T23:52:08.795Z,9.25
2023-05-13T23:54:36.350Z,10.32
2023-05-13T23:57:03.885Z,8.85
2023-05-13T23:59:31.479Z,10.40
